< < Back
Terminal Aerodrome Forecast


Current Version              Previous Versions:   1  2  3  4  5  6  7  8  9  

Terminal Aerodrome Forecast

191
FTUS42 KTAE 260534
TAFDHN
TAF
KDHN 260534Z 2606/2706 22007KT P6SM FEW007
     FM260900 24008KT 5SM BR SCT007
     FM261200 25008KT P6SM SCT015
     FM261600 27011G16KT P6SM SCT040=

Latest METAR

476
SAUS70 KWBC 261300 RRF
MTRDHN
METAR KDHN 261253Z 29009KT 10SM CLR 21/18 A2979 RMK AO2 SLP084
T02060183


USA.gov is the U.S. government's official web portal to all federal, state and local government web resources and services.